createdAt,value
2023-03-16T00:01:43.396Z,9.90
2023-03-16T00:04:09.920Z,9.90
2023-03-16T00:06:36.399Z,9.90
2023-03-16T00:09:02.885Z,9.90
2023-03-16T00:11:29.391Z,9.90
2023-03-16T00:13:55.871Z,9.80
2023-03-16T00:16:22.396Z,9.80
2023-03-16T00:18:48.909Z,9.80
2023-03-16T00:21:17.435Z,9.80
2023-03-16T00:23:43.910Z,9.80
2023-03-16T00:26:10.394Z,9.80
2023-03-16T00:28:36.878Z,9.90
2023-03-16T00:31:03.394Z,9.80
2023-03-16T00:33:29.860Z,9.80
2023-03-16T00:35:56.407Z,9.80
2023-03-16T00:38:22.903Z,9.80
2023-03-16T00:40:49.388Z,9.80
2023-03-16T00:43:15.850Z,9.90
2023-03-16T00:45:42.470Z,9.80
2023-03-16T00:48:09.007Z,9.90
2023-03-16T00:50:35.489Z,9.80
2023-03-16T00:53:01.953Z,9.80
2023-03-16T00:55:28.434Z,9.90
2023-03-16T00:57:54.912Z,9.80
2023-03-16T01:00:24.505Z,9.90
2023-03-16T01:02:51.016Z,9.90
2023-03-16T01:05:17.511Z,9.80
2023-03-16T01:07:43.986Z,9.80
2023-03-16T01:10:10.433Z,9.80
2023-03-16T01:12:36.921Z,9.80
2023-03-16T01:15:03.411Z,9.80
2023-03-16T01:17:29.893Z,9.70
2023-03-16T01:19:56.373Z,9.80
2023-03-16T01:22:22.871Z,9.70
2023-03-16T01:24:49.345Z,9.70
2023-03-16T01:27:15.840Z,9.70
2023-03-16T01:29:42.315Z,9.70
2023-03-16T01:32:08.791Z,9.70
2023-03-16T01:34:35.276Z,9.70
2023-03-16T01:37:05.540Z,9.70
2023-03-16T01:39:32.040Z,9.60
2023-03-16T01:41:58.518Z,9.70
2023-03-16T01:44:24.972Z,9.70
2023-03-16T01:46:51.454Z,9.60
2023-03-16T01:49:17.932Z,9.60
2023-03-16T01:51:44.423Z,9.60
2023-03-16T01:54:10.909Z,9.50
2023-03-16T01:56:37.408Z,9.50
2023-03-16T01:59:03.881Z,9.60
2023-03-16T02:01:30.418Z,9.60
2023-03-16T02:03:56.931Z,9.60
2023-03-16T02:06:23.503Z,9.50
2023-03-16T02:08:50.025Z,9.50
2023-03-16T02:11:16.556Z,9.50
2023-03-16T02:13:43.041Z,9.50
2023-03-16T02:16:09.563Z,9.50
2023-03-16T02:18:36.082Z,9.50
2023-03-16T02:21:02.592Z,9.60
2023-03-16T02:23:29.077Z,9.60
2023-03-16T02:25:55.562Z,9.60
2023-03-16T02:28:22.034Z,9.60
2023-03-16T02:30:48.553Z,9.60
2023-03-16T02:33:15.061Z,9.60
2023-03-16T02:35:41.654Z,9.60
2023-03-16T02:38:11.557Z,9.60
2023-03-16T02:40:38.041Z,9.60
2023-03-16T02:43:04.554Z,9.60
2023-03-16T02:45:31.026Z,9.60
2023-03-16T02:47:57.500Z,9.60
2023-03-16T02:50:23.989Z,9.60
2023-03-16T02:52:50.483Z,9.60
2023-03-16T02:55:16.963Z,9.50
2023-03-16T02:57:43.450Z,9.60
2023-03-16T03:00:09.979Z,9.60
2023-03-16T03:02:36.454Z,9.60
2023-03-16T03:05:02.931Z,9.50
2023-03-16T03:07:29.420Z,9.50
2023-03-16T03:09:55.901Z,9.60
2023-03-16T03:12:22.384Z,9.50
2023-03-16T03:14:48.851Z,9.50
2023-03-16T03:17:15.322Z,9.60
2023-03-16T03:19:41.818Z,9.50
2023-03-16T03:22:08.313Z,9.60
2023-03-16T03:24:34.799Z,9.50
2023-03-16T03:27:01.277Z,9.50
2023-03-16T03:29:27.707Z,9.50
2023-03-16T03:31:54.243Z,9.50
2023-03-16T03:34:20.714Z,9.50
2023-03-16T03:36:47.195Z,9.50
2023-03-16T03:39:13.658Z,9.40
2023-03-16T03:41:40.161Z,9.50
2023-03-16T03:44:06.714Z,9.50
2023-03-16T03:46:33.258Z,9.50
2023-03-16T03:48:59.831Z,9.50
2023-03-16T03:51:26.302Z,9.60
2023-03-16T03:53:52.805Z,9.50
2023-03-16T03:56:19.279Z,9.50
2023-03-16T03:58:45.779Z,9.50
2023-03-16T04:01:12.267Z,9.50
2023-03-16T04:03:38.748Z,9.50
2023-03-16T04:06:05.218Z,9.50
2023-03-16T04:08:31.729Z,9.50
2023-03-16T04:10:58.243Z,9.50
2023-03-16T04:13:24.751Z,9.40
2023-03-16T04:15:51.232Z,9.50
2023-03-16T04:18:17.703Z,9.50
2023-03-16T04:20:44.302Z,9.50
2023-03-16T04:23:10.789Z,9.50
2023-03-16T04:25:37.288Z,9.50
2023-03-16T04:28:03.765Z,9.50
2023-03-16T04:30:30.565Z,9.50
2023-03-16T04:32:57.251Z,9.40
2023-03-16T04:35:23.744Z,9.50
2023-03-16T04:37:50.242Z,9.40
2023-03-16T04:40:16.753Z,9.50
2023-03-16T04:42:43.249Z,9.40
2023-03-16T04:45:09.721Z,9.40
2023-03-16T04:47:36.200Z,9.40
2023-03-16T04:50:05.670Z,9.40
2023-03-16T04:52:32.148Z,9.40
2023-03-16T04:54:58.641Z,9.40
2023-03-16T04:57:25.110Z,9.40
2023-03-16T04:59:51.640Z,9.30
2023-03-16T05:02:18.124Z,9.40
2023-03-16T05:04:44.607Z,9.40
2023-03-16T05:07:11.081Z,9.40
2023-03-16T05:09:37.550Z,9.40
2023-03-16T05:12:04.122Z,9.40
2023-03-16T05:14:30.638Z,9.40
2023-03-16T05:16:57.116Z,9.40
2023-03-16T05:19:23.604Z,9.40
2023-03-16T05:21:50.074Z,9.40
2023-03-16T05:24:16.571Z,9.40
2023-03-16T05:26:43.055Z,9.50
2023-03-16T05:29:09.557Z,9.50
2023-03-16T05:31:36.110Z,9.50
2023-03-16T05:34:02.713Z,9.50
2023-03-16T05:36:29.178Z,9.50
2023-03-16T05:38:59.707Z,9.50
2023-03-16T05:41:26.190Z,9.50
2023-03-16T05:43:52.683Z,9.50
2023-03-16T05:46:20.833Z,9.50
2023-03-16T05:48:47.506Z,9.60
2023-03-16T05:51:13.978Z,9.60
2023-03-16T05:53:40.467Z,9.60
2023-03-16T05:56:06.972Z,9.60
2023-03-16T05:58:33.426Z,9.60
2023-03-16T06:00:59.907Z,9.50
2023-03-16T06:03:26.393Z,9.50
2023-03-16T06:05:52.855Z,9.50
2023-03-16T06:08:19.328Z,9.50
2023-03-16T06:10:45.810Z,9.60
2023-03-16T06:13:12.276Z,9.60
2023-03-16T06:15:38.742Z,9.60
2023-03-16T06:18:05.208Z,9.60
2023-03-16T06:20:31.672Z,9.60
2023-03-16T06:22:58.139Z,9.60
2023-03-16T06:25:24.619Z,9.60
2023-03-16T06:27:51.070Z,9.60
2023-03-16T06:30:17.559Z,9.60
2023-03-16T06:32:44.071Z,9.60
2023-03-16T06:35:10.587Z,9.60
2023-03-16T06:37:37.075Z,9.60
2023-03-16T06:40:05.758Z,9.60
2023-03-16T06:42:32.210Z,9.60
2023-03-16T06:44:58.707Z,9.60
2023-03-16T06:47:25.183Z,9.60
2023-03-16T06:49:51.655Z,9.60
2023-03-16T06:52:18.148Z,9.60
2023-03-16T06:54:44.623Z,9.60
2023-03-16T06:57:11.111Z,9.50
2023-03-16T06:59:37.589Z,9.60
2023-03-16T07:02:05.782Z,9.60
2023-03-16T07:04:32.273Z,9.60
2023-03-16T07:06:58.794Z,9.60
2023-03-16T07:09:25.287Z,9.60
2023-03-16T07:11:51.739Z,9.60
2023-03-16T07:14:18.210Z,9.60
2023-03-16T07:16:44.735Z,9.60
2023-03-16T07:19:11.234Z,9.60
2023-03-16T07:21:37.725Z,9.60
2023-03-16T07:24:04.236Z,9.60
2023-03-16T07:26:30.714Z,9.60
2023-03-16T07:28:58.188Z,9.60
2023-03-16T07:31:24.789Z,9.60
2023-03-16T07:33:51.294Z,9.70
2023-03-16T07:36:17.805Z,9.70
2023-03-16T07:38:44.298Z,9.70
2023-03-16T07:41:10.851Z,9.70
2023-03-16T07:43:37.307Z,9.70
2023-03-16T07:46:03.844Z,9.70
2023-03-16T07:48:30.324Z,9.70
2023-03-16T07:50:56.828Z,9.70
2023-03-16T07:53:23.319Z,9.70
2023-03-16T07:55:49.801Z,9.70
2023-03-16T07:58:16.321Z,9.70
2023-03-16T08:00:47.975Z,9.70
2023-03-16T08:03:14.560Z,9.80
2023-03-16T08:05:41.044Z,9.70
2023-03-16T08:08:07.556Z,9.70
2023-03-16T08:10:34.020Z,9.70
2023-03-16T08:13:00.557Z,9.70
2023-03-16T08:15:27.054Z,9.80
2023-03-16T08:17:53.506Z,9.80
2023-03-16T08:20:19.978Z,9.70
2023-03-16T08:22:46.803Z,9.80
2023-03-16T08:25:13.445Z,9.80
2023-03-16T08:27:39.939Z,9.80
2023-03-16T08:30:06.428Z,9.80
2023-03-16T08:32:32.919Z,9.70
2023-03-16T08:34:59.443Z,9.80
2023-03-16T08:37:25.945Z,9.80
2023-03-16T08:39:52.429Z,9.80
2023-03-16T08:42:18.909Z,9.70
2023-03-16T08:44:47.865Z,9.80
2023-03-16T08:47:14.397Z,9.80
2023-03-16T08:49:40.893Z,9.80
2023-03-16T08:52:07.359Z,9.80
2023-03-16T08:54:33.866Z,9.80
2023-03-16T08:57:00.361Z,9.80
2023-03-16T08:59:30.214Z,9.90
2023-03-16T09:01:57.099Z,9.80
2023-03-16T09:04:23.709Z,9.80
2023-03-16T09:07:02.337Z,9.80
2023-03-16T09:09:34.224Z,9.80
2023-03-16T09:12:00.688Z,9.80
2023-03-16T09:14:27.176Z,9.80
2023-03-16T09:16:53.650Z,9.80
2023-03-16T09:19:20.130Z,9.80
2023-03-16T09:21:47.437Z,9.80
2023-03-16T09:24:13.998Z,9.80
2023-03-16T09:26:41.920Z,9.80
2023-03-16T09:29:08.423Z,9.80
2023-03-16T09:31:34.942Z,9.80
2023-03-16T09:34:01.484Z,9.80
2023-03-16T09:36:27.957Z,9.80
2023-03-16T09:38:54.437Z,9.80
2023-03-16T09:41:20.913Z,9.80
2023-03-16T09:43:47.402Z,9.80
2023-03-16T09:46:13.897Z,9.90
2023-03-16T09:48:40.421Z,9.90
2023-03-16T09:51:06.966Z,9.90
2023-03-16T09:53:33.528Z,9.90
2023-03-16T09:55:59.988Z,9.80
2023-03-16T09:58:26.481Z,9.90
2023-03-16T10:00:53.087Z,9.90
2023-03-16T10:03:19.654Z,9.90
2023-03-16T10:05:46.142Z,9.90
2023-03-16T10:08:12.654Z,9.90
2023-03-16T10:10:39.129Z,9.90
2023-03-16T10:13:05.607Z,9.90
2023-03-16T10:15:32.090Z,9.90
2023-03-16T10:17:58.544Z,9.90
2023-03-16T10:20:25.032Z,9.90
2023-03-16T10:22:51.509Z,9.90
2023-03-16T10:25:17.986Z,10.00
2023-03-16T10:27:44.464Z,10.00
2023-03-16T10:30:10.933Z,10.00
2023-03-16T10:32:37.449Z,10.00
2023-03-16T10:35:03.943Z,10.00
2023-03-16T10:37:30.623Z,10.00
2023-03-16T10:39:57.130Z,10.00
2023-03-16T10:42:23.603Z,10.00
2023-03-16T10:44:50.093Z,10.00
2023-03-16T10:47:16.598Z,10.00
2023-03-16T10:49:43.099Z,10.00
2023-03-16T10:52:09.556Z,10.00
2023-03-16T10:54:36.027Z,10.00
2023-03-16T10:57:02.515Z,10.00
2023-03-16T10:59:28.998Z,10.00
2023-03-16T11:01:55.472Z,10.00
2023-03-16T11:04:22.012Z,10.00
2023-03-16T11:06:48.505Z,10.00
2023-03-16T11:09:14.982Z,10.00
2023-03-16T11:11:41.458Z,9.90
2023-03-16T11:14:07.941Z,10.00
2023-03-16T11:16:34.563Z,9.90
2023-03-16T11:19:01.107Z,10.00
2023-03-16T11:21:27.613Z,10.00
2023-03-16T11:23:54.126Z,10.00
2023-03-16T11:26:20.593Z,10.00
2023-03-16T11:28:47.078Z,10.00
2023-03-16T11:31:13.592Z,10.00
2023-03-16T11:33:40.107Z,10.00
2023-03-16T11:36:06.637Z,10.00
2023-03-16T11:38:33.115Z,10.00
2023-03-16T11:40:59.708Z,10.00
2023-03-16T11:43:26.188Z,10.00
2023-03-16T11:45:52.702Z,10.00
2023-03-16T11:48:19.225Z,10.00
2023-03-16T11:50:45.744Z,10.10
2023-03-16T11:53:12.248Z,10.10
2023-03-16T11:55:38.770Z,10.10
2023-03-16T11:58:05.223Z,10.10
2023-03-16T12:00:31.730Z,10.10
2023-03-16T12:02:58.225Z,10.10
2023-03-16T12:05:24.715Z,10.10
2023-03-16T12:07:51.182Z,10.10
2023-03-16T12:10:17.679Z,10.20
2023-03-16T12:12:44.150Z,10.20
2023-03-16T12:15:10.659Z,10.20
2023-03-16T12:17:37.129Z,10.20
2023-03-16T12:20:03.619Z,10.20
2023-03-16T12:22:30.080Z,10.30
2023-03-16T12:24:56.587Z,10.20
2023-03-16T12:27:23.062Z,10.30
2023-03-16T12:29:49.550Z,10.30
2023-03-16T12:32:17.990Z,10.30
2023-03-16T12:34:44.462Z,10.30
2023-03-16T12:37:10.917Z,10.30
2023-03-16T12:39:37.394Z,10.30
2023-03-16T12:42:03.879Z,10.30
2023-03-16T12:44:30.335Z,10.40
2023-03-16T12:46:56.788Z,10.30
2023-03-16T12:49:23.257Z,10.30
2023-03-16T12:51:49.735Z,10.30
2023-03-16T12:54:16.207Z,10.30
2023-03-16T12:56:42.687Z,10.30
2023-03-16T12:59:09.153Z,10.30
2023-03-16T13:01:35.644Z,10.30
2023-03-16T13:04:02.168Z,10.40
2023-03-16T13:06:28.716Z,10.30
2023-03-16T13:08:55.201Z,10.40
2023-03-16T13:11:24.071Z,10.30
2023-03-16T13:13:50.582Z,10.40
2023-03-16T13:16:17.096Z,10.40
2023-03-16T13:18:43.567Z,10.40
2023-03-16T13:21:10.054Z,10.40
2023-03-16T13:23:37.635Z,10.40
2023-03-16T13:26:05.127Z,10.40
2023-03-16T13:28:31.606Z,10.40
2023-03-16T13:30:58.141Z,10.40
2023-03-16T13:33:24.653Z,10.40
2023-03-16T13:35:51.228Z,10.40
2023-03-16T13:38:17.772Z,10.50
2023-03-16T13:40:44.257Z,10.40
2023-03-16T13:43:10.739Z,10.40
2023-03-16T13:45:42.149Z,10.40
2023-03-16T13:48:08.651Z,10.50
2023-03-16T13:50:35.184Z,10.50
2023-03-16T13:53:04.113Z,10.50
2023-03-16T13:55:30.858Z,10.50
2023-03-16T13:57:57.343Z,10.50
2023-03-16T14:00:23.812Z,10.50
2023-03-16T14:02:50.336Z,10.50
2023-03-16T14:05:16.866Z,10.50
2023-03-16T14:07:43.343Z,10.50
2023-03-16T14:10:09.907Z,10.50
2023-03-16T14:12:36.400Z,10.50
2023-03-16T14:15:02.889Z,10.50
2023-03-16T14:17:29.360Z,10.50
2023-03-16T14:19:55.824Z,10.60
2023-03-16T14:22:22.315Z,10.60
2023-03-16T14:24:48.787Z,10.50
2023-03-16T14:27:15.275Z,10.50
2023-03-16T14:29:41.784Z,10.60
2023-03-16T14:32:08.252Z,10.60
2023-03-16T14:34:34.743Z,10.60
2023-03-16T14:37:01.200Z,10.60
2023-03-16T14:39:27.707Z,10.60
2023-03-16T14:41:54.159Z,10.60
2023-03-16T14:47:11.659Z,10.60
2023-03-16T14:49:38.173Z,10.60
2023-03-16T14:52:04.648Z,10.60
2023-03-16T14:54:31.151Z,10.60
2023-03-16T14:56:57.611Z,10.60
2023-03-16T14:59:24.311Z,10.60
2023-03-16T15:01:50.860Z,10.60
2023-03-16T15:04:17.383Z,10.60
2023-03-16T15:06:43.850Z,10.60
2023-03-16T15:09:12.123Z,10.60
2023-03-16T15:11:42.187Z,10.70
2023-03-16T15:14:08.667Z,10.70
2023-03-16T15:16:36.199Z,10.70
2023-03-16T15:19:02.743Z,10.80
2023-03-16T15:21:29.225Z,10.90
2023-03-16T15:23:55.716Z,11.00
2023-03-16T15:26:24.930Z,11.20
2023-03-16T15:28:51.745Z,11.20
2023-03-16T15:31:18.269Z,11.20
2023-03-16T15:33:44.775Z,11.20
2023-03-16T15:36:11.268Z,11.10
2023-03-16T15:38:37.749Z,11.10
2023-03-16T15:41:04.230Z,11.00
2023-03-16T15:43:30.713Z,11.00
2023-03-16T15:45:57.197Z,11.00
2023-03-16T15:48:23.659Z,11.00
2023-03-16T15:50:50.142Z,11.00
2023-03-16T15:53:29.619Z,11.00
2023-03-16T15:55:57.048Z,11.00
2023-03-16T15:58:23.508Z,11.00
2023-03-16T16:00:50.036Z,11.00
2023-03-16T16:03:16.568Z,11.00
2023-03-16T16:05:43.057Z,11.00
2023-03-16T16:08:09.536Z,10.90
2023-03-16T16:10:36.035Z,10.90
2023-03-16T16:13:06.229Z,10.90
2023-03-16T16:15:32.713Z,10.90
2023-03-16T16:18:19.981Z,10.90
2023-03-16T16:20:45.648Z,10.90
2023-03-16T16:23:12.187Z,10.90
2023-03-16T16:25:38.712Z,10.90
2023-03-16T16:28:06.178Z,10.90
2023-03-16T16:30:32.683Z,10.90
2023-03-16T16:32:59.210Z,10.90
2023-03-16T16:35:25.766Z,10.90
2023-03-16T16:37:52.244Z,10.90
2023-03-16T16:40:18.742Z,10.90
2023-03-16T16:42:45.210Z,10.90
2023-03-16T16:45:11.711Z,10.90
2023-03-16T16:47:38.187Z,10.90
2023-03-16T16:50:04.673Z,10.90
2023-03-16T16:52:31.141Z,10.90
2023-03-16T16:54:57.628Z,10.80
2023-03-16T16:57:24.094Z,10.80
2023-03-16T16:59:50.569Z,10.90
2023-03-16T17:02:18.269Z,10.90
2023-03-16T17:04:44.783Z,10.80
2023-03-16T17:07:11.321Z,10.90
2023-03-16T17:09:37.785Z,10.90
2023-03-16T17:12:04.255Z,10.90
2023-03-16T17:14:30.738Z,10.90
2023-03-16T17:16:57.314Z,10.90
2023-03-16T17:19:24.252Z,10.80
2023-03-16T17:21:50.757Z,10.80
2023-03-16T17:24:17.215Z,10.80
2023-03-16T17:26:43.690Z,10.80
2023-03-16T17:29:10.155Z,10.80
2023-03-16T17:31:36.638Z,10.80
2023-03-16T17:34:03.121Z,10.80
2023-03-16T17:36:29.601Z,10.80
2023-03-16T17:38:56.063Z,10.80
2023-03-16T17:41:22.547Z,10.80
2023-03-16T17:43:49.010Z,10.80
2023-03-16T17:46:17.645Z,10.80
2023-03-16T17:48:44.277Z,10.80
2023-03-16T17:51:10.758Z,10.80
2023-03-16T17:53:37.227Z,10.80
2023-03-16T17:56:06.316Z,10.80
2023-03-16T17:58:32.804Z,10.70
2023-03-16T18:00:59.284Z,10.80
2023-03-16T18:03:25.795Z,10.70
2023-03-16T18:05:52.309Z,10.70
2023-03-16T18:08:18.793Z,10.70
2023-03-16T18:10:45.258Z,10.70
2023-03-16T18:13:11.728Z,10.70
2023-03-16T18:15:38.223Z,10.70
2023-03-16T18:18:04.764Z,10.70
2023-03-16T18:20:31.534Z,10.70
2023-03-16T18:23:00.312Z,10.70
2023-03-16T18:25:26.809Z,10.70
2023-03-16T18:27:53.301Z,10.70
2023-03-16T18:30:19.814Z,10.70
2023-03-16T18:32:46.289Z,10.70
2023-03-16T18:35:18.347Z,10.70
2023-03-16T18:37:44.836Z,10.60
2023-03-16T18:40:11.339Z,10.60
2023-03-16T18:42:37.832Z,10.70
2023-03-16T18:45:04.362Z,10.70
2023-03-16T18:47:30.844Z,10.60
2023-03-16T18:49:57.319Z,10.60
2023-03-16T18:52:23.787Z,10.60
2023-03-16T18:54:50.277Z,10.60
2023-03-16T18:57:16.761Z,10.60
2023-03-16T18:59:43.238Z,10.50
2023-03-16T19:02:09.753Z,10.60
2023-03-16T19:04:36.289Z,10.60
2023-03-16T19:07:02.784Z,10.60
2023-03-16T19:09:29.258Z,10.60
2023-03-16T19:11:55.805Z,10.60
2023-03-16T19:14:22.286Z,10.50
2023-03-16T19:16:48.770Z,10.50
2023-03-16T19:19:15.254Z,10.60
2023-03-16T19:21:42.362Z,10.50
2023-03-16T19:24:08.836Z,10.50
2023-03-16T19:26:35.314Z,10.50
2023-03-16T19:29:01.792Z,10.50
2023-03-16T19:31:30.440Z,10.50
2023-03-16T19:33:56.957Z,10.50
2023-03-16T19:36:23.525Z,10.60
2023-03-16T19:38:50.026Z,10.50
2023-03-16T19:41:16.524Z,10.50
2023-03-16T19:43:43.014Z,10.50
2023-03-16T19:46:09.542Z,10.50
2023-03-16T19:48:36.047Z,10.50
2023-03-16T19:51:02.553Z,10.50
2023-03-16T19:53:29.040Z,10.50
2023-03-16T19:55:55.533Z,10.50
2023-03-16T19:58:22.020Z,10.50
2023-03-16T20:00:48.541Z,10.50
2023-03-16T20:03:15.072Z,10.50
2023-03-16T20:05:41.580Z,10.50
2023-03-16T20:08:08.068Z,10.50
2023-03-16T20:10:34.610Z,10.50
2023-03-16T20:13:01.210Z,10.50
2023-03-16T20:15:27.934Z,10.50
2023-03-16T20:17:54.612Z,10.40
2023-03-16T20:20:21.114Z,10.40
2023-03-16T20:22:48.384Z,10.50
2023-03-16T20:25:14.861Z,10.50
2023-03-16T20:27:41.319Z,10.50
2023-03-16T20:30:07.820Z,10.50
2023-03-16T20:32:34.292Z,10.50
2023-03-16T20:35:06.614Z,10.50
2023-03-16T20:37:33.121Z,10.40
2023-03-16T20:39:59.630Z,10.40
2023-03-16T20:42:26.115Z,10.40
2023-03-16T20:44:52.602Z,10.50
2023-03-16T20:47:19.062Z,10.40
2023-03-16T20:49:45.539Z,10.40
2023-03-16T20:52:12.116Z,10.40
2023-03-16T20:54:38.649Z,10.40
2023-03-16T20:57:05.130Z,10.40
2023-03-16T20:59:31.640Z,10.40
2023-03-16T21:01:58.066Z,10.40
2023-03-16T21:04:24.596Z,10.40
2023-03-16T21:06:51.140Z,10.40
2023-03-16T21:09:17.659Z,10.40
2023-03-16T21:11:44.138Z,10.40
2023-03-16T21:14:10.627Z,10.40
2023-03-16T21:16:37.100Z,10.40
2023-03-16T21:19:03.581Z,10.40
2023-03-16T21:21:30.067Z,10.40
2023-03-16T21:23:56.563Z,10.40
2023-03-16T21:26:23.064Z,10.40
2023-03-16T21:28:49.548Z,10.40
2023-03-16T21:31:19.347Z,10.40
2023-03-16T21:33:46.086Z,10.40
2023-03-16T21:36:12.625Z,10.40
2023-03-16T21:38:39.133Z,10.40
2023-03-16T21:41:05.643Z,10.40
2023-03-16T21:43:32.118Z,10.40
2023-03-16T21:45:58.609Z,10.40
2023-03-16T21:48:25.082Z,10.40
2023-03-16T21:50:51.590Z,10.30
2023-03-16T21:53:18.045Z,10.40
2023-03-16T21:55:44.533Z,10.40
2023-03-16T21:58:11.017Z,10.40
2023-03-16T22:00:37.519Z,10.40
2023-03-16T22:03:04.017Z,10.40
2023-03-16T22:05:30.690Z,10.40
2023-03-16T22:07:57.264Z,10.40
2023-03-16T22:10:23.759Z,10.40
2023-03-16T22:12:50.231Z,10.40
2023-03-16T22:15:16.724Z,10.40
2023-03-16T22:17:43.183Z,10.40
2023-03-16T22:20:09.671Z,10.40
2023-03-16T22:22:36.128Z,10.40
2023-03-16T22:25:02.618Z,10.40
2023-03-16T22:27:29.095Z,10.40
2023-03-16T22:29:55.575Z,10.40
2023-03-16T22:32:22.052Z,10.40
2023-03-16T22:34:48.507Z,10.40
2023-03-16T22:37:14.978Z,10.40
2023-03-16T22:39:41.454Z,10.40
2023-03-16T22:42:07.943Z,10.40
2023-03-16T22:44:34.414Z,10.40
2023-03-16T22:47:00.877Z,10.40
2023-03-16T22:49:27.337Z,10.40
2023-03-16T22:51:53.816Z,10.40
2023-03-16T22:54:20.279Z,10.40
2023-03-16T22:56:46.761Z,10.40
2023-03-16T22:59:13.243Z,10.40
2023-03-16T23:01:39.721Z,10.40
2023-03-16T23:04:06.190Z,10.40
2023-03-16T23:06:32.670Z,10.40
2023-03-16T23:08:59.138Z,10.40
2023-03-16T23:11:26.461Z,10.40
2023-03-16T23:13:54.265Z,10.40
2023-03-16T23:16:20.808Z,10.40
2023-03-16T23:18:47.320Z,10.40
2023-03-16T23:21:18.576Z,10.40
2023-03-16T23:23:53.912Z,10.40
2023-03-16T23:26:28.956Z,10.40
2023-03-16T23:28:55.434Z,10.40
2023-03-16T23:31:21.956Z,10.40
2023-03-16T23:33:48.501Z,10.40
2023-03-16T23:36:14.999Z,10.40
2023-03-16T23:38:41.472Z,10.40
2023-03-16T23:41:07.973Z,10.40
2023-03-16T23:43:34.454Z,10.40
2023-03-16T23:46:01.008Z,10.40
2023-03-16T23:48:27.535Z,10.40
2023-03-16T23:50:54.014Z,10.40
2023-03-16T23:53:20.481Z,10.40
2023-03-16T23:55:46.982Z,10.40
2023-03-16T23:58:13.446Z,10.40
